createdAt,value
2022-11-14T00:00:35.856Z,4.50
2022-11-14T00:03:24.172Z,4.50
2022-11-14T00:06:11.528Z,4.50
2022-11-14T00:08:58.998Z,4.60
2022-11-14T00:11:45.781Z,4.60
2022-11-14T00:14:32.678Z,4.50
2022-11-14T00:17:19.599Z,4.40
2022-11-14T00:20:09.899Z,4.40
2022-11-14T00:22:57.326Z,4.40
2022-11-14T00:25:46.399Z,4.30
2022-11-14T00:28:33.125Z,4.30
2022-11-14T00:31:19.994Z,4.30
2022-11-14T00:34:07.120Z,4.30
2022-11-14T00:36:55.343Z,4.30
2022-11-14T00:39:42.187Z,4.30
2022-11-14T00:42:28.909Z,4.30
2022-11-14T00:45:16.599Z,4.30
2022-11-14T00:48:03.532Z,4.20
2022-11-14T00:50:50.533Z,4.10
2022-11-14T00:53:38.684Z,4.10
2022-11-14T00:56:27.186Z,4.10
2022-11-14T00:59:13.902Z,4.20
2022-11-14T01:02:01.513Z,4.10
2022-11-14T01:04:48.399Z,4.20
2022-11-14T01:07:35.038Z,4.30
2022-11-14T01:10:23.349Z,4.70
2022-11-14T01:13:10.467Z,5.10
2022-11-14T01:16:01.356Z,5.50
2022-11-14T01:18:48.265Z,5.50
2022-11-14T01:21:35.024Z,5.60
2022-11-14T01:24:21.520Z,5.70
2022-11-14T01:27:09.865Z,5.90
2022-11-14T01:29:56.606Z,5.90
2022-11-14T01:32:43.088Z,5.70
2022-11-14T01:35:33.183Z,5.60
2022-11-14T01:38:20.169Z,5.60
2022-11-14T01:41:07.601Z,5.60
2022-11-14T01:43:55.644Z,5.70
2022-11-14T01:46:44.189Z,5.70
2022-11-14T01:49:39.001Z,5.60
2022-11-14T01:52:29.214Z,5.70
2022-11-14T01:55:15.952Z,5.80
2022-11-14T01:58:02.852Z,6.00
2022-11-14T02:00:51.087Z,6.00
2022-11-14T02:03:41.171Z,6.00
2022-11-14T02:06:31.998Z,6.10
2022-11-14T02:09:18.939Z,5.80
2022-11-14T02:12:09.297Z,5.60
2022-11-14T02:14:58.953Z,5.80
2022-11-14T02:17:46.990Z,5.80
2022-11-14T02:20:38.289Z,5.60
2022-11-14T02:23:29.626Z,5.40
2022-11-14T02:26:20.247Z,5.10
2022-11-14T02:29:08.140Z,5.00
2022-11-14T02:31:54.714Z,4.90
2022-11-14T02:34:41.299Z,4.80
2022-11-14T02:37:29.346Z,4.90
2022-11-14T02:40:16.233Z,4.90
2022-11-14T02:43:03.048Z,4.90
2022-11-14T02:45:49.419Z,5.00
2022-11-14T02:48:36.063Z,5.10
2022-11-14T02:51:22.942Z,5.20
2022-11-14T02:54:10.808Z,5.20
2022-11-14T02:56:57.254Z,5.30
2022-11-14T02:59:44.187Z,5.30
2022-11-14T03:02:30.767Z,5.60
2022-11-14T03:05:17.760Z,5.60
2022-11-14T03:08:05.331Z,5.50
2022-11-14T03:10:53.184Z,5.80
2022-11-14T03:13:39.584Z,5.70
2022-11-14T03:16:26.177Z,5.40
2022-11-14T03:19:12.748Z,5.30
2022-11-14T03:21:59.494Z,5.50
2022-11-14T03:24:46.208Z,5.50
2022-11-14T03:27:34.470Z,5.50
2022-11-14T03:30:21.276Z,5.40
2022-11-14T03:33:08.384Z,5.40
2022-11-14T03:35:55.397Z,5.50
2022-11-14T03:38:41.978Z,5.40
2022-11-14T03:41:28.778Z,5.40
2022-11-14T03:44:17.464Z,5.40
2022-11-14T03:47:03.906Z,5.50
2022-11-14T03:49:50.470Z,5.40
2022-11-14T03:52:37.377Z,5.40
2022-11-14T03:55:24.339Z,5.40
2022-11-14T03:58:10.820Z,5.40
2022-11-14T04:00:59.277Z,5.40
2022-11-14T04:03:46.477Z,5.30
2022-11-14T04:06:33.378Z,5.20
2022-11-14T04:09:20.191Z,5.40
2022-11-14T04:12:10.141Z,5.40
2022-11-14T04:15:01.036Z,5.50
2022-11-14T04:17:49.177Z,5.50
2022-11-14T04:20:35.631Z,5.60
2022-11-14T04:23:22.466Z,5.80
2022-11-14T04:26:09.180Z,5.80
2022-11-14T04:28:55.947Z,5.90
2022-11-14T04:31:42.866Z,5.90
2022-11-14T04:34:30.900Z,5.90
2022-11-14T04:37:17.724Z,5.90
2022-11-14T04:40:05.686Z,5.70
2022-11-14T04:42:52.420Z,5.70
2022-11-14T04:45:39.154Z,5.70
2022-11-14T04:48:25.876Z,5.70
2022-11-14T04:51:14.110Z,5.70
2022-11-14T04:54:00.983Z,5.80
2022-11-14T04:56:47.613Z,5.80
2022-11-14T04:59:34.237Z,5.80
2022-11-14T05:02:20.917Z,5.80
2022-11-14T05:05:08.087Z,5.70
2022-11-14T05:07:57.135Z,5.70
2022-11-14T05:10:45.116Z,5.70
2022-11-14T05:13:31.776Z,5.90
2022-11-14T05:16:18.770Z,6.00
2022-11-14T05:19:05.550Z,6.00
2022-11-14T05:21:52.215Z,6.00
2022-11-14T05:24:40.318Z,6.10
2022-11-14T05:27:27.468Z,5.90
2022-11-14T05:30:14.670Z,6.00
2022-11-14T05:33:01.276Z,6.00
2022-11-14T05:35:47.914Z,6.10
2022-11-14T05:38:34.898Z,6.10
2022-11-14T05:41:23.002Z,6.20
2022-11-14T05:44:10.181Z,6.20
2022-11-14T05:46:57.042Z,6.20
2022-11-14T05:49:43.509Z,6.20
2022-11-14T05:52:30.227Z,6.20
2022-11-14T05:55:21.833Z,6.20
2022-11-14T05:58:12.445Z,6.20
2022-11-14T06:01:03.893Z,6.20
2022-11-14T06:03:50.627Z,6.20
2022-11-14T06:06:37.288Z,6.20
2022-11-14T06:09:24.358Z,6.20
2022-11-14T06:12:11.076Z,6.30
2022-11-14T06:14:59.364Z,6.10
2022-11-14T06:17:46.656Z,6.10
2022-11-14T06:20:33.594Z,6.00
2022-11-14T06:23:24.629Z,5.90
2022-11-14T06:26:17.796Z,5.90
2022-11-14T06:29:04.616Z,5.90
2022-11-14T06:31:52.861Z,5.90
2022-11-14T06:34:39.469Z,5.90
2022-11-14T06:37:28.434Z,5.90
2022-11-14T06:40:19.053Z,5.90
2022-11-14T06:43:05.926Z,6.00
2022-11-14T06:45:55.065Z,6.20
2022-11-14T06:48:44.097Z,6.20
2022-11-14T06:51:31.632Z,6.30
2022-11-14T06:54:18.952Z,6.20
2022-11-14T06:57:05.894Z,6.20
2022-11-14T06:59:52.925Z,6.20
2022-11-14T07:02:39.627Z,6.20
2022-11-14T07:05:27.687Z,6.20
2022-11-14T07:08:19.750Z,6.20
2022-11-14T07:11:09.734Z,6.10
2022-11-14T07:13:58.790Z,6.10
2022-11-14T07:16:45.867Z,6.10
2022-11-14T07:19:32.752Z,6.30
2022-11-14T07:22:21.127Z,6.30
2022-11-14T07:25:08.959Z,6.20
2022-11-14T07:27:58.555Z,6.20
2022-11-14T07:30:45.173Z,6.20
2022-11-14T07:33:33.329Z,6.20
2022-11-14T07:36:20.203Z,6.20
2022-11-14T07:39:08.389Z,6.30
2022-11-14T07:41:55.204Z,6.30
2022-11-14T07:44:41.845Z,6.30
2022-11-14T07:47:29.483Z,6.30
2022-11-14T07:50:20.217Z,6.40
2022-11-14T07:53:07.590Z,6.30
2022-11-14T07:55:57.391Z,6.30
2022-11-14T07:58:45.439Z,6.30
2022-11-14T08:01:33.372Z,6.40
2022-11-14T08:04:24.779Z,6.40
2022-11-14T08:07:11.654Z,6.40
2022-11-14T08:09:59.005Z,6.40
2022-11-14T08:12:56.246Z,6.60
2022-11-14T08:15:52.109Z,6.80
2022-11-14T08:18:39.317Z,6.70
2022-11-14T08:21:27.717Z,6.80
2022-11-14T08:24:14.981Z,6.70
2022-11-14T08:27:01.786Z,6.70
2022-11-14T08:29:51.164Z,6.60
2022-11-14T08:32:41.683Z,6.50
2022-11-14T08:35:29.842Z,6.50
2022-11-14T08:38:17.466Z,6.40
2022-11-14T08:41:05.806Z,6.30
2022-11-14T08:43:53.229Z,6.40
2022-11-14T08:46:42.291Z,6.30
2022-11-14T08:49:30.109Z,6.30
2022-11-14T08:52:17.637Z,6.40
2022-11-14T08:55:07.784Z,6.40
2022-11-14T08:57:55.779Z,6.50
2022-11-14T09:00:43.979Z,6.50
2022-11-14T09:03:34.049Z,6.50
2022-11-14T09:06:21.886Z,6.50
2022-11-14T09:09:09.331Z,6.60
2022-11-14T09:11:56.684Z,6.50
2022-11-14T09:14:48.077Z,6.60
2022-11-14T09:17:35.511Z,6.60
2022-11-14T09:20:31.509Z,6.60
2022-11-14T09:23:25.555Z,6.60
2022-11-14T09:26:12.834Z,6.40
2022-11-14T09:29:01.118Z,6.50
2022-11-14T09:31:48.824Z,6.50
2022-11-14T09:34:37.322Z,6.50
2022-11-14T09:37:27.529Z,6.60
2022-11-14T09:40:16.087Z,6.60
2022-11-14T09:43:27.462Z,6.70
2022-11-14T09:46:21.151Z,6.80
2022-11-14T09:49:16.332Z,6.80
2022-11-14T09:52:13.909Z,6.80
2022-11-14T09:55:12.291Z,6.90
2022-11-14T09:57:59.587Z,6.80
2022-11-14T10:00:53.184Z,6.80
2022-11-14T10:03:49.268Z,6.80
2022-11-14T10:06:42.358Z,6.90
2022-11-14T10:09:51.934Z,6.90
2022-11-14T10:12:55.228Z,6.90
2022-11-14T10:15:50.874Z,7.00
2022-11-14T10:18:55.926Z,6.90
2022-11-14T10:21:55.737Z,7.00
2022-11-14T10:25:19.122Z,7.10
2022-11-14T10:28:22.481Z,7.30
2022-11-14T10:31:20.185Z,7.50
2022-11-14T10:34:17.473Z,7.50
2022-11-14T10:37:20.627Z,7.50
2022-11-14T10:40:18.925Z,7.50
2022-11-14T10:43:19.789Z,7.40
2022-11-14T10:46:10.966Z,7.70
2022-11-14T10:49:00.341Z,7.50
2022-11-14T10:51:54.442Z,7.50
2022-11-14T10:54:47.445Z,7.50
2022-11-14T10:57:34.844Z,7.50
2022-11-14T11:00:24.630Z,7.60
2022-11-14T11:03:12.363Z,7.70
2022-11-14T11:06:01.616Z,7.90
2022-11-14T11:09:07.970Z,7.90
2022-11-14T11:11:59.067Z,8.00
2022-11-14T11:15:23.369Z,8.10
2022-11-14T11:18:28.974Z,8.40
2022-11-14T11:21:21.331Z,8.40
2022-11-14T11:24:10.350Z,8.50
2022-11-14T11:27:14.444Z,8.70
2022-11-14T11:30:20.569Z,8.70
2022-11-14T11:33:18.900Z,8.80
2022-11-14T11:36:14.712Z,8.90
2022-11-14T11:39:01.642Z,8.90
2022-11-14T11:45:01.508Z,9.10
2022-11-14T11:47:54.564Z,9.20
2022-11-14T11:50:42.483Z,9.40
2022-11-14T11:53:35.770Z,9.50
2022-11-14T11:56:26.855Z,9.50
2022-11-14T11:59:27.480Z,9.50
2022-11-14T12:02:24.448Z,9.40
2022-11-14T12:05:16.629Z,9.50
2022-11-14T12:08:07.630Z,9.50
2022-11-14T12:10:58.055Z,9.70
2022-11-14T12:14:10.956Z,9.70
2022-11-14T12:17:28.158Z,9.70
2022-11-14T12:20:43.565Z,9.80
2022-11-14T12:24:00.727Z,9.90
2022-11-14T12:27:03.306Z,10.00
2022-11-14T12:30:15.660Z,9.90
2022-11-14T12:33:05.750Z,9.90
2022-11-14T12:36:03.552Z,9.80
2022-11-14T12:38:55.864Z,9.80
2022-11-14T12:41:43.584Z,9.80
2022-11-14T12:44:38.449Z,9.80
2022-11-14T12:47:29.511Z,9.80
2022-11-14T12:50:41.795Z,9.80
2022-11-14T12:53:43.138Z,9.70
2022-11-14T12:57:01.964Z,9.70
2022-11-14T13:00:03.515Z,9.60
2022-11-14T13:03:21.739Z,9.60
2022-11-14T13:06:12.027Z,9.50
2022-11-14T13:09:25.255Z,9.50
2022-11-14T13:12:49.010Z,9.50
2022-11-14T13:16:12.331Z,9.60
2022-11-14T13:19:34.998Z,9.60
2022-11-14T13:22:39.353Z,9.60
2022-11-14T13:25:26.698Z,9.60
2022-11-14T13:28:46.180Z,9.60
2022-11-14T13:31:49.296Z,9.60
2022-11-14T13:34:48.869Z,9.60
2022-11-14T13:38:10.589Z,9.50
2022-11-14T13:41:12.085Z,9.50
2022-11-14T13:44:13.780Z,9.60
2022-11-14T13:47:27.750Z,9.60
2022-11-14T13:50:18.261Z,9.70
2022-11-14T13:53:14.994Z,9.70
2022-11-14T13:56:09.762Z,9.70
2022-11-14T13:59:22.970Z,9.70
2022-11-14T14:02:26.751Z,9.70
2022-11-14T14:05:23.043Z,9.80
2022-11-14T14:08:21.112Z,9.80
2022-11-14T14:11:28.782Z,9.80
2022-11-14T14:14:32.380Z,9.90
2022-11-14T14:17:28.820Z,9.90
2022-11-14T14:20:32.653Z,9.80
2022-11-14T14:23:32.563Z,9.80
2022-11-14T14:26:33.735Z,9.80
2022-11-14T14:29:25.618Z,9.80
2022-11-14T14:32:15.399Z,9.80
2022-11-14T14:35:26.093Z,9.90
2022-11-14T14:38:22.629Z,9.80
2022-11-14T14:41:10.815Z,9.80
2022-11-14T14:43:58.588Z,9.80
2022-11-14T14:46:45.855Z,9.80
2022-11-14T14:49:38.047Z,9.80
2022-11-14T14:52:33.234Z,9.80
2022-11-14T14:55:22.933Z,9.80
2022-11-14T14:58:22.166Z,9.80
2022-11-14T15:01:16.636Z,9.90
2022-11-14T15:04:06.549Z,9.90
2022-11-14T15:06:56.259Z,9.80
2022-11-14T15:09:54.978Z,9.80
2022-11-14T15:12:43.474Z,9.80
2022-11-14T15:15:33.239Z,9.80
2022-11-14T15:18:25.600Z,9.70
2022-11-14T15:21:18.524Z,9.70
2022-11-14T15:24:15.804Z,9.80
2022-11-14T15:27:11.710Z,10.00
2022-11-14T15:30:03.234Z,9.80
2022-11-14T15:32:52.261Z,9.70
2022-11-14T15:35:40.694Z,9.80
2022-11-14T15:38:46.926Z,9.80
2022-11-14T15:41:35.253Z,9.80
2022-11-14T15:44:35.011Z,9.70
2022-11-14T15:47:27.310Z,9.80
2022-11-14T15:50:31.643Z,9.90
2022-11-14T15:53:28.199Z,9.90
2022-11-14T15:56:20.143Z,9.90
2022-11-14T15:59:07.402Z,9.80
2022-11-14T16:01:59.845Z,9.90
2022-11-14T16:04:48.305Z,9.90
2022-11-14T16:07:35.265Z,10.10
2022-11-14T16:10:24.779Z,10.10
2022-11-14T16:13:12.282Z,10.00
2022-11-14T16:15:59.115Z,10.10
2022-11-14T16:18:47.292Z,10.10
2022-11-14T16:21:34.693Z,9.90
2022-11-14T16:24:22.895Z,9.80
2022-11-14T16:27:09.533Z,9.90
2022-11-14T16:29:56.324Z,10.00
2022-11-14T16:32:46.376Z,10.20
2022-11-14T16:35:34.797Z,10.20
2022-11-14T16:38:21.629Z,10.00
2022-11-14T16:41:08.943Z,10.20
2022-11-14T16:43:56.993Z,10.30
2022-11-14T16:46:44.013Z,10.40
2022-11-14T16:49:35.604Z,10.40
2022-11-14T16:55:13.453Z,10.30
2022-11-14T16:58:00.422Z,10.00
2022-11-14T17:00:49.952Z,10.10
2022-11-14T17:04:05.384Z,10.10
2022-11-14T17:06:52.820Z,10.10
2022-11-14T17:09:41.153Z,10.00
2022-11-14T17:12:28.155Z,10.00
2022-11-14T17:15:15.273Z,10.10
2022-11-14T17:18:04.198Z,10.10
2022-11-14T17:20:53.746Z,10.10
2022-11-14T17:23:40.988Z,10.20
2022-11-14T17:26:30.414Z,10.20
2022-11-14T17:29:18.371Z,10.20
2022-11-14T17:32:06.134Z,10.20
2022-11-14T17:34:52.906Z,10.40
2022-11-14T17:37:39.903Z,10.50
2022-11-14T17:40:26.685Z,10.30
2022-11-14T17:43:16.558Z,10.20
2022-11-14T17:46:04.501Z,10.00
2022-11-14T17:48:51.555Z,9.90
2022-11-14T17:51:38.876Z,9.90
2022-11-14T17:54:25.816Z,9.90
2022-11-14T18:00:04.658Z,10.10
2022-11-14T18:02:52.390Z,10.00
2022-11-14T18:05:39.249Z,10.00
2022-11-14T18:08:28.229Z,9.90
2022-11-14T18:11:17.769Z,10.00
2022-11-14T18:14:04.976Z,10.00
2022-11-14T18:17:12.343Z,10.10
2022-11-14T18:20:09.082Z,10.00
2022-11-14T18:25:47.369Z,10.10
2022-11-14T18:28:34.499Z,10.30
2022-11-14T18:31:24.494Z,10.30
2022-11-14T18:34:16.294Z,10.30
2022-11-14T18:37:03.633Z,10.30
2022-11-14T18:39:51.382Z,10.00
2022-11-14T18:42:38.842Z,9.90
2022-11-14T18:45:26.252Z,9.90
2022-11-14T18:48:15.194Z,10.00
2022-11-14T18:51:05.611Z,9.90
2022-11-14T18:53:55.524Z,9.90
2022-11-14T18:56:43.687Z,10.00
2022-11-14T18:59:35.435Z,10.00
2022-11-14T19:02:27.078Z,10.00
2022-11-14T19:05:14.646Z,9.90
2022-11-14T19:13:42.827Z,10.00
2022-11-14T19:19:19.344Z,10.10
2022-11-14T19:22:06.662Z,10.10
2022-11-14T19:24:59.956Z,10.10
2022-11-14T19:27:52.220Z,10.30
2022-11-14T19:30:39.597Z,10.30
2022-11-14T19:33:27.228Z,10.20
2022-11-14T19:36:18.844Z,10.20
2022-11-14T19:39:15.565Z,10.20
2022-11-14T19:42:04.500Z,10.20
2022-11-14T19:44:52.305Z,10.20
2022-11-14T19:47:40.475Z,10.10
2022-11-14T19:53:16.385Z,9.90
2022-11-14T19:56:05.346Z,9.80
2022-11-14T19:58:57.388Z,9.70
2022-11-14T20:01:46.337Z,9.70
2022-11-14T20:04:38.039Z,9.40
2022-11-14T20:07:26.294Z,9.60
2022-11-14T20:10:14.105Z,9.10
2022-11-14T20:13:02.314Z,9.60
2022-11-14T20:15:51.357Z,9.50
2022-11-14T20:18:39.255Z,9.40
2022-11-14T20:21:34.783Z,9.30
2022-11-14T20:24:25.280Z,9.20
2022-11-14T20:27:13.829Z,9.10
2022-11-14T20:30:02.539Z,9.00
2022-11-14T20:32:54.768Z,8.90
2022-11-14T20:35:42.810Z,8.90
2022-11-14T20:38:33.516Z,8.90
2022-11-14T20:41:27.377Z,9.00
2022-11-14T20:44:17.000Z,9.00
2022-11-14T20:47:09.727Z,8.90
2022-11-14T20:50:00.249Z,8.90
2022-11-14T20:53:14.395Z,8.80
2022-11-14T20:56:11.320Z,8.70
2022-11-14T20:59:00.401Z,8.80
2022-11-14T21:01:49.252Z,8.70
2022-11-14T21:04:39.117Z,8.70
2022-11-14T21:07:28.330Z,8.60
2022-11-14T21:10:34.355Z,8.60
2022-11-14T21:13:41.398Z,10.40
2022-11-14T21:16:33.381Z,8.60
2022-11-14T21:19:25.586Z,8.60
2022-11-14T21:27:59.413Z,8.60
2022-11-14T21:30:46.934Z,8.60
2022-11-14T21:33:34.579Z,8.50
2022-11-14T21:36:43.815Z,8.60
2022-11-14T21:39:29.812Z,8.70
2022-11-14T21:42:21.273Z,8.70
2022-11-14T21:45:09.510Z,8.60
2022-11-14T21:47:58.125Z,8.60
2022-11-14T21:50:45.304Z,8.50
2022-11-14T21:53:33.012Z,8.50
2022-11-14T21:56:23.027Z,8.60
2022-11-14T21:59:18.994Z,8.60
2022-11-14T22:02:23.289Z,8.70
2022-11-14T22:05:10.175Z,8.60
2022-11-14T22:13:33.770Z,8.80
2022-11-14T22:16:27.797Z,8.90
2022-11-14T22:22:02.666Z,8.90
2022-11-14T22:24:50.267Z,8.90
2022-11-14T22:33:15.236Z,9.00
2022-11-14T22:36:07.092Z,9.00
2022-11-14T22:38:55.664Z,8.80
2022-11-14T22:41:42.617Z,8.90
2022-11-14T22:44:32.866Z,8.90
2022-11-14T22:47:20.520Z,8.90
2022-11-14T22:50:11.329Z,8.90
2022-11-14T22:53:06.648Z,8.80
2022-11-14T22:58:43.590Z,8.90
2022-11-14T23:01:32.568Z,9.00
2022-11-14T23:04:19.776Z,8.90
2022-11-14T23:07:10.854Z,8.80
2022-11-14T23:09:58.284Z,8.80
2022-11-14T23:12:45.449Z,8.80
2022-11-14T23:15:32.655Z,8.70
2022-11-14T23:18:19.627Z,8.90
2022-11-14T23:21:07.886Z,8.90
2022-11-14T23:23:58.186Z,8.80
2022-11-14T23:26:45.748Z,8.70
2022-11-14T23:29:32.928Z,8.70
2022-11-14T23:32:20.472Z,8.60
2022-11-14T23:35:10.221Z,8.50
2022-11-14T23:37:57.056Z,8.30
2022-11-14T23:40:45.164Z,8.30
2022-11-14T23:43:32.748Z,8.30
2022-11-14T23:46:19.707Z,8.40
2022-11-14T23:49:06.597Z,8.30
2022-11-14T23:51:53.933Z,8.20
2022-11-14T23:54:40.931Z,8.20
2022-11-14T23:57:29.071Z,8.10
